createdAt,value
2023-05-13T00:00:39.360Z,0
2023-05-13T00:01:39.374Z,0
2023-05-13T00:02:39.479Z,0
2023-05-13T00:03:39.413Z,0
2023-05-13T00:04:39.356Z,0
2023-05-13T00:05:39.399Z,0
2023-05-13T00:06:39.422Z,0
2023-05-13T00:07:39.363Z,0
2023-05-13T00:08:39.389Z,0
2023-05-13T00:09:39.386Z,0
2023-05-13T00:10:39.437Z,0
2023-05-13T00:11:39.372Z,0
2023-05-13T00:12:39.363Z,0
2023-05-13T00:13:39.358Z,0
2023-05-13T00:14:39.378Z,0
2023-05-13T00:15:39.368Z,0
2023-05-13T00:16:39.409Z,0
2023-05-13T00:17:39.386Z,0
2023-05-13T00:18:39.376Z,0
2023-05-13T00:19:39.365Z,0
2023-05-13T00:20:39.365Z,0
2023-05-13T00:21:39.365Z,0
2023-05-13T00:22:39.367Z,0
2023-05-13T00:23:39.380Z,0
2023-05-13T00:24:39.408Z,0
2023-05-13T00:25:39.370Z,0
2023-05-13T00:26:39.364Z,0
2023-05-13T00:27:39.365Z,0
2023-05-13T00:28:39.388Z,0
2023-05-13T00:29:39.365Z,0
2023-05-13T00:30:39.380Z,0
2023-05-13T00:31:39.452Z,0
2023-05-13T00:32:39.411Z,0
2023-05-13T00:33:39.392Z,0
2023-05-13T00:34:39.356Z,0
2023-05-13T00:35:39.368Z,0
2023-05-13T00:36:39.364Z,0
2023-05-13T00:37:39.396Z,0
2023-05-13T00:38:39.384Z,0
2023-05-13T00:39:39.356Z,0
2023-05-13T00:40:39.367Z,0
2023-05-13T00:41:39.358Z,0
2023-05-13T00:42:39.365Z,0
2023-05-13T00:43:39.382Z,0
2023-05-13T00:44:39.363Z,0
2023-05-13T00:45:39.409Z,0
2023-05-13T00:46:39.376Z,0
2023-05-13T00:47:39.398Z,0
2023-05-13T00:48:39.424Z,0
2023-05-13T00:49:39.370Z,0
2023-05-13T00:50:39.352Z,0
2023-05-13T00:51:39.367Z,0
2023-05-13T00:52:39.367Z,0
2023-05-13T00:53:39.376Z,0
2023-05-13T00:54:39.362Z,0
2023-05-13T00:55:39.356Z,0
2023-05-13T00:56:39.358Z,0
2023-05-13T00:57:39.364Z,0
2023-05-13T00:58:39.384Z,0
2023-05-13T00:59:39.360Z,0
2023-05-13T01:00:39.379Z,0
2023-05-13T01:01:39.405Z,0
2023-05-13T01:02:39.494Z,0
2023-05-13T01:03:39.442Z,0
2023-05-13T01:04:39.362Z,0
2023-05-13T01:05:39.375Z,0
2023-05-13T01:06:39.368Z,0
2023-05-13T01:07:39.365Z,0
2023-05-13T01:08:39.373Z,0
2023-05-13T01:09:39.371Z,0
2023-05-13T01:10:39.366Z,0
2023-05-13T01:11:39.363Z,0
2023-05-13T01:12:39.350Z,0
2023-05-13T01:13:39.382Z,0
2023-05-13T01:14:39.357Z,0
2023-05-13T01:15:39.369Z,0
2023-05-13T01:16:39.429Z,0
2023-05-13T01:17:39.391Z,0
2023-05-13T01:18:39.387Z,0
2023-05-13T01:19:39.363Z,0
2023-05-13T01:20:39.361Z,0
2023-05-13T01:21:39.358Z,0
2023-05-13T01:22:39.360Z,0
2023-05-13T01:23:39.391Z,0
2023-05-13T01:24:39.395Z,0
2023-05-13T01:25:39.365Z,0
2023-05-13T01:26:39.344Z,0
2023-05-13T01:27:39.368Z,0
2023-05-13T01:28:39.383Z,0
2023-05-13T01:29:39.362Z,0
2023-05-13T01:30:39.367Z,0
2023-05-13T01:31:39.431Z,0
2023-05-13T01:32:39.454Z,0
2023-05-13T01:33:39.388Z,0
2023-05-13T01:34:39.357Z,0
2023-05-13T01:35:39.368Z,0
2023-05-13T01:36:39.364Z,0
2023-05-13T01:37:39.355Z,0
2023-05-13T01:38:39.368Z,0
2023-05-13T01:39:39.347Z,0
2023-05-13T01:40:39.612Z,0
2023-05-13T01:41:39.354Z,0
2023-05-13T01:42:39.368Z,0
2023-05-13T01:43:39.385Z,0
2023-05-13T01:44:39.359Z,0
2023-05-13T01:45:39.366Z,0
2023-05-13T01:46:39.442Z,0
2023-05-13T01:47:39.427Z,0
2023-05-13T01:48:39.374Z,0
2023-05-13T01:49:39.358Z,0
2023-05-13T01:50:39.365Z,0
2023-05-13T01:51:39.350Z,0
2023-05-13T01:52:39.363Z,0
2023-05-13T01:53:39.373Z,0
2023-05-13T01:54:39.371Z,0
2023-05-13T01:55:39.371Z,0
2023-05-13T01:56:39.365Z,0
2023-05-13T01:57:39.358Z,0
2023-05-13T01:58:39.375Z,0
2023-05-13T01:59:39.354Z,0
2023-05-13T02:00:39.385Z,0
2023-05-13T02:01:39.396Z,0
2023-05-13T02:02:39.530Z,0
2023-05-13T02:03:39.480Z,0
2023-05-13T02:04:39.357Z,0
2023-05-13T02:05:39.363Z,0
2023-05-13T02:06:39.350Z,0
2023-05-13T02:07:39.378Z,0
2023-05-13T02:08:39.399Z,0
2023-05-13T02:09:39.358Z,0
2023-05-13T02:10:39.357Z,0
2023-05-13T02:11:39.359Z,0
2023-05-13T02:12:39.364Z,0
2023-05-13T02:13:39.391Z,0
2023-05-13T02:14:39.356Z,0
2023-05-13T02:15:39.365Z,0
2023-05-13T02:16:39.376Z,0
2023-05-13T02:17:39.409Z,0
2023-05-13T02:18:39.424Z,0
2023-05-13T02:19:39.354Z,0
2023-05-13T02:20:39.366Z,0
2023-05-13T02:21:39.369Z,0
2023-05-13T02:22:39.357Z,0
2023-05-13T02:23:39.381Z,0
2023-05-13T02:24:39.364Z,0
2023-05-13T02:25:39.356Z,0
2023-05-13T02:26:39.365Z,0
2023-05-13T02:27:39.362Z,0
2023-05-13T02:28:39.383Z,0
2023-05-13T02:29:39.362Z,0
2023-05-13T02:30:39.368Z,0
2023-05-13T02:31:39.451Z,0
2023-05-13T02:32:39.371Z,0
2023-05-13T02:33:39.372Z,0
2023-05-13T02:34:39.361Z,0
2023-05-13T02:35:39.360Z,0
2023-05-13T02:36:39.347Z,0
2023-05-13T02:37:39.357Z,0
2023-05-13T02:38:39.372Z,0
2023-05-13T02:39:39.363Z,0
2023-05-13T02:40:39.367Z,0
2023-05-13T02:41:39.356Z,0
2023-05-13T02:42:39.363Z,0
2023-05-13T02:43:39.377Z,0
2023-05-13T02:44:39.365Z,0
2023-05-13T02:45:39.403Z,1
2023-05-13T02:46:39.389Z,1
2023-05-13T02:47:39.426Z,1
2023-05-13T02:48:39.380Z,3
2023-05-13T02:49:39.369Z,3
2023-05-13T02:50:39.372Z,5
2023-05-13T02:51:39.389Z,5
2023-05-13T02:52:39.370Z,7
2023-05-13T02:53:39.379Z,9
2023-05-13T02:54:39.390Z,11
2023-05-13T02:55:39.355Z,12
2023-05-13T02:56:39.354Z,14
2023-05-13T02:57:39.372Z,14
2023-05-13T02:58:39.373Z,18
2023-05-13T02:59:39.364Z,22
2023-05-13T03:00:39.371Z,25
2023-05-13T03:01:39.449Z,29
2023-05-13T03:02:39.464Z,33
2023-05-13T03:03:39.451Z,38
2023-05-13T03:04:39.355Z,42
2023-05-13T03:05:39.367Z,47
2023-05-13T03:06:39.364Z,55
2023-05-13T03:07:39.361Z,60
2023-05-13T03:08:39.374Z,68
2023-05-13T03:09:39.366Z,77
2023-05-13T03:10:39.348Z,84
2023-05-13T03:11:39.364Z,94
2023-05-13T03:12:39.357Z,105
2023-05-13T03:13:39.371Z,116
2023-05-13T03:14:39.373Z,127
2023-05-13T03:15:40.158Z,138
2023-05-13T03:16:39.403Z,152
2023-05-13T03:17:39.396Z,164
2023-05-13T03:18:39.399Z,180
2023-05-13T03:19:39.364Z,195
2023-05-13T03:20:39.363Z,213
2023-05-13T03:21:39.366Z,226
2023-05-13T03:22:39.355Z,246
2023-05-13T03:23:39.413Z,261
2023-05-13T03:24:39.357Z,282
2023-05-13T03:25:39.376Z,300
2023-05-13T03:26:39.360Z,318
2023-05-13T03:27:39.365Z,339
2023-05-13T03:28:39.384Z,339
2023-05-13T03:29:39.368Z,385
2023-05-13T03:30:39.371Z,407
2023-05-13T03:31:39.444Z,431
2023-05-13T03:32:39.439Z,455
2023-05-13T03:33:39.377Z,481
2023-05-13T03:34:39.366Z,505
2023-05-13T03:35:39.377Z,530
2023-05-13T03:36:39.366Z,558
2023-05-13T03:37:39.371Z,582
2023-05-13T03:38:39.373Z,608
2023-05-13T03:39:39.351Z,637
2023-05-13T03:40:39.357Z,661
2023-05-13T03:41:39.367Z,691
2023-05-13T03:42:39.354Z,715
2023-05-13T03:43:39.385Z,739
2023-05-13T03:44:39.371Z,764
2023-05-13T03:45:39.369Z,790
2023-05-13T03:46:39.424Z,809
2023-05-13T03:47:39.439Z,831
2023-05-13T03:48:39.380Z,849
2023-05-13T03:49:39.400Z,871
2023-05-13T03:50:39.372Z,897
2023-05-13T03:51:39.367Z,919
2023-05-13T03:52:39.370Z,949
2023-05-13T03:53:39.386Z,971
2023-05-13T03:54:39.371Z,1002
2023-05-13T03:55:39.361Z,1030
2023-05-13T03:56:39.353Z,1056
2023-05-13T03:57:39.357Z,1083
2023-05-13T03:58:39.381Z,1118
2023-05-13T03:59:39.375Z,1146
2023-05-13T04:00:39.363Z,1185
2023-05-13T04:01:39.390Z,1220
2023-05-13T04:02:39.475Z,1260
2023-05-13T04:03:39.392Z,1299
2023-05-13T04:04:39.405Z,1330
2023-05-13T04:05:39.374Z,1362
2023-05-13T04:06:39.362Z,1398
2023-05-13T04:07:39.364Z,1434
2023-05-13T04:08:39.381Z,1474
2023-05-13T04:09:39.367Z,1507
2023-05-13T04:10:39.373Z,1546
2023-05-13T04:11:39.366Z,1579
2023-05-13T04:12:39.367Z,1616
2023-05-13T04:13:39.381Z,1651
2023-05-13T04:14:39.383Z,1675
2023-05-13T04:15:39.366Z,1712
2023-05-13T04:16:39.378Z,1739
2023-05-13T04:17:39.385Z,1767
2023-05-13T04:18:39.455Z,1795
2023-05-13T04:19:39.354Z,1800
2023-05-13T04:20:39.370Z,1793
2023-05-13T04:21:39.366Z,1833
2023-05-13T04:22:39.363Z,1898
2023-05-13T04:23:39.385Z,1961
2023-05-13T04:24:39.364Z,2001
2023-05-13T04:25:39.382Z,2029
2023-05-13T04:26:39.365Z,2062
2023-05-13T04:27:39.365Z,2093
2023-05-13T04:28:39.383Z,2093
2023-05-13T04:29:39.376Z,2167
2023-05-13T04:30:39.384Z,2193
2023-05-13T04:31:39.567Z,2217
2023-05-13T04:32:39.409Z,2257
2023-05-13T04:33:39.391Z,2289
2023-05-13T04:34:39.367Z,2298
2023-05-13T04:35:39.359Z,2315
2023-05-13T04:36:39.359Z,2339
2023-05-13T04:37:39.380Z,2375
2023-05-13T04:38:39.370Z,2394
2023-05-13T04:39:39.357Z,2429
2023-05-13T04:40:39.355Z,2453
2023-05-13T04:41:39.349Z,2488
2023-05-13T04:42:39.358Z,2501
2023-05-13T04:43:39.379Z,2530
2023-05-13T04:44:39.360Z,2541
2023-05-13T04:45:39.368Z,2565
2023-05-13T04:46:39.402Z,2587
2023-05-13T04:47:39.372Z,2619
2023-05-13T04:48:39.387Z,2637
2023-05-13T04:49:39.363Z,2656
2023-05-13T04:50:39.364Z,2678
2023-05-13T04:51:39.370Z,2700
2023-05-13T04:52:39.368Z,2705
2023-05-13T04:53:39.387Z,2722
2023-05-13T04:54:39.374Z,2703
2023-05-13T04:55:39.360Z,2659
2023-05-13T04:56:39.370Z,2687
2023-05-13T04:57:39.366Z,2676
2023-05-13T04:58:39.367Z,2707
2023-05-13T04:59:39.366Z,2692
2023-05-13T05:00:39.371Z,2630
2023-05-13T05:01:39.433Z,2621
2023-05-13T05:02:39.381Z,2602
2023-05-13T05:03:39.392Z,2613
2023-05-13T05:04:39.362Z,2639
2023-05-13T05:05:39.361Z,2709
2023-05-13T05:06:39.364Z,2757
2023-05-13T05:07:39.371Z,2814
2023-05-13T05:08:39.363Z,2862
2023-05-13T05:09:39.382Z,2921
2023-05-13T05:10:39.372Z,2974
2023-05-13T05:11:39.371Z,3050
2023-05-13T05:12:39.366Z,3175
2023-05-13T05:13:39.377Z,3328
2023-05-13T05:14:39.378Z,3500
2023-05-13T05:15:39.373Z,3653
2023-05-13T05:16:39.373Z,3806
2023-05-13T05:17:39.457Z,4020
2023-05-13T05:18:39.451Z,4156
2023-05-13T05:19:39.355Z,4294
2023-05-13T05:20:39.348Z,4324
2023-05-13T05:21:39.360Z,4362
2023-05-13T05:22:39.378Z,4379
2023-05-13T05:23:39.373Z,4348
2023-05-13T05:24:39.370Z,4279
2023-05-13T05:25:39.372Z,4038
2023-05-13T05:26:41.117Z,3962
2023-05-13T05:27:39.386Z,3959
2023-05-13T05:28:39.360Z,3959
2023-05-13T05:29:39.357Z,3819
2023-05-13T05:30:39.464Z,3763
2023-05-13T05:31:39.423Z,3741
2023-05-13T05:32:39.437Z,3736
2023-05-13T05:33:39.362Z,3745
2023-05-13T05:34:39.371Z,3773
2023-05-13T05:35:39.360Z,3785
2023-05-13T05:36:39.372Z,3822
2023-05-13T05:37:39.389Z,3839
2023-05-13T05:38:39.368Z,3859
2023-05-13T05:39:39.362Z,3881
2023-05-13T05:40:39.378Z,3920
2023-05-13T05:41:39.364Z,3942
2023-05-13T05:42:39.377Z,3966
2023-05-13T05:43:39.363Z,4025
2023-05-13T05:44:39.360Z,4031
2023-05-13T05:45:39.387Z,4045
2023-05-13T05:46:39.372Z,4073
2023-05-13T05:47:39.428Z,4095
2023-05-13T05:48:39.381Z,4114
2023-05-13T05:49:39.370Z,4147
2023-05-13T05:50:39.439Z,4154
2023-05-13T05:51:39.359Z,4189
2023-05-13T05:52:39.383Z,4206
2023-05-13T05:53:39.366Z,4239
2023-05-13T05:54:39.360Z,4257
2023-05-13T05:55:39.381Z,4283
2023-05-13T05:56:39.356Z,4318
2023-05-13T05:57:39.378Z,4348
2023-05-13T05:58:39.369Z,4373
2023-05-13T05:59:39.360Z,4403
2023-05-13T06:00:39.367Z,4447
2023-05-13T06:01:39.382Z,4458
2023-05-13T06:02:39.486Z,4488
2023-05-13T06:03:39.477Z,4526
2023-05-13T06:04:39.387Z,4547
2023-05-13T06:05:39.382Z,4576
2023-05-13T06:06:39.381Z,4620
2023-05-13T06:07:39.374Z,4661
2023-05-13T06:08:39.386Z,4705
2023-05-13T06:09:39.357Z,4738
2023-05-13T06:10:39.367Z,4749
2023-05-13T06:11:39.396Z,4796
2023-05-13T06:12:39.372Z,4843
2023-05-13T06:13:39.382Z,4867
2023-05-13T06:14:39.351Z,4897
2023-05-13T06:15:39.441Z,4941
2023-05-13T06:16:39.403Z,4989
2023-05-13T06:17:39.422Z,5028
2023-05-13T06:18:39.418Z,5063
2023-05-13T06:19:39.363Z,5101
2023-05-13T06:20:39.376Z,5140
2023-05-13T06:21:39.361Z,5168
2023-05-13T06:22:39.375Z,5219
2023-05-13T06:23:39.366Z,5256
2023-05-13T06:24:39.396Z,5304
2023-05-13T06:25:39.353Z,5343
2023-05-13T06:26:39.349Z,5391
2023-05-13T06:27:39.365Z,5409
2023-05-13T06:28:39.363Z,5409
2023-05-13T06:29:39.368Z,5518
2023-05-13T06:30:39.364Z,5603
2023-05-13T06:31:39.433Z,5619
2023-05-13T06:32:42.736Z,5697
2023-05-13T06:33:39.413Z,5763
2023-05-13T06:34:39.370Z,5822
2023-05-13T06:35:39.379Z,5916
2023-05-13T06:36:39.358Z,5957
2023-05-13T06:37:39.399Z,6027
2023-05-13T06:38:39.355Z,6147
2023-05-13T06:39:39.365Z,6226
2023-05-13T06:40:39.365Z,6357
2023-05-13T06:41:39.369Z,6447
2023-05-13T06:42:39.377Z,6558
2023-05-13T06:43:39.354Z,6615
2023-05-13T06:44:39.361Z,6742
2023-05-13T06:45:39.371Z,6812
2023-05-13T06:46:39.405Z,6832
2023-05-13T06:47:39.423Z,6812
2023-05-13T06:48:39.355Z,6854
2023-05-13T06:49:39.364Z,6849
2023-05-13T06:50:39.371Z,6873
2023-05-13T06:51:39.348Z,7216
2023-05-13T06:52:41.719Z,7509
2023-05-13T06:53:39.378Z,9332
2023-05-13T06:54:39.358Z,10963
2023-05-13T06:55:39.360Z,10850
2023-05-13T06:56:39.370Z,11295
2023-05-13T06:57:43.099Z,11002
2023-05-13T06:58:39.356Z,10793
2023-05-13T06:59:39.361Z,10591
2023-05-13T07:00:39.416Z,10089
2023-05-13T07:01:39.414Z,10087
2023-05-13T07:02:39.441Z,10725
2023-05-13T07:03:39.392Z,11166
2023-05-13T07:04:39.364Z,12047
2023-05-13T07:05:39.370Z,11604
2023-05-13T07:06:39.366Z,11744
2023-05-13T07:07:39.370Z,12091
2023-05-13T07:08:39.353Z,12166
2023-05-13T07:09:39.357Z,10568
2023-05-13T07:10:39.363Z,12485
2023-05-13T07:11:39.354Z,10697
2023-05-13T07:12:39.404Z,12719
2023-05-13T07:13:40.079Z,12823
2023-05-13T07:14:39.361Z,13259
2023-05-13T07:15:39.367Z,13112
2023-05-13T07:16:39.406Z,13040
2023-05-13T07:17:39.474Z,13057
2023-05-13T07:18:39.352Z,13097
2023-05-13T07:19:39.356Z,13208
2023-05-13T07:20:39.364Z,13433
2023-05-13T07:21:39.401Z,13427
2023-05-13T07:22:39.532Z,13549
2023-05-13T07:23:39.356Z,13333
2023-05-13T07:24:39.361Z,13510
2023-05-13T07:25:39.386Z,13475
2023-05-13T07:26:39.349Z,14421
2023-05-13T07:27:39.367Z,12653
2023-05-13T07:28:39.359Z,12653
2023-05-13T07:29:39.389Z,13993
2023-05-13T07:30:39.372Z,14384
2023-05-13T07:31:39.384Z,11604
2023-05-13T07:32:39.505Z,9409
2023-05-13T07:33:39.378Z,9988
2023-05-13T07:34:39.364Z,11999
2023-05-13T07:35:39.373Z,9783
2023-05-13T07:36:39.363Z,8113
2023-05-13T07:37:39.373Z,7664
2023-05-13T07:38:39.361Z,7536
2023-05-13T07:39:39.357Z,7863
2023-05-13T07:40:39.355Z,8309
2023-05-13T07:41:39.364Z,12747
2023-05-13T07:42:39.356Z,12649
2023-05-13T07:43:39.370Z,12194
2023-05-13T07:44:39.371Z,14240
2023-05-13T07:45:39.382Z,14279
2023-05-13T07:46:39.412Z,8769
2023-05-13T07:47:39.376Z,12434
2023-05-13T07:48:39.367Z,7984
2023-05-13T07:49:39.361Z,7135
2023-05-13T07:50:39.378Z,6959
2023-05-13T07:51:39.362Z,7332
2023-05-13T07:52:39.358Z,8775
2023-05-13T07:53:39.369Z,8827
2023-05-13T07:54:39.357Z,8967
2023-05-13T07:55:39.377Z,11811
2023-05-13T07:56:39.378Z,13171
2023-05-13T07:57:39.368Z,13488
2023-05-13T07:58:39.359Z,12789
2023-05-13T07:59:39.363Z,12213
2023-05-13T08:00:39.370Z,11553
2023-05-13T08:01:39.386Z,12830
2023-05-13T08:02:39.546Z,12620
2023-05-13T08:03:39.555Z,12465
2023-05-13T08:04:39.437Z,11588
2023-05-13T08:05:39.367Z,12235
2023-05-13T08:06:40.172Z,11625
2023-05-13T08:07:39.384Z,11392
2023-05-13T08:08:39.345Z,11636
2023-05-13T08:09:39.366Z,11002
2023-05-13T08:10:39.376Z,12292
2023-05-13T08:11:39.361Z,10465
2023-05-13T08:12:39.369Z,10030
2023-05-13T08:13:39.430Z,10909
2023-05-13T08:14:39.370Z,9676
2023-05-13T08:15:39.366Z,9968
2023-05-13T08:16:39.478Z,9654
2023-05-13T08:17:39.407Z,9604
2023-05-13T08:18:39.389Z,8434
2023-05-13T08:19:39.355Z,8318
2023-05-13T08:20:39.379Z,8467
2023-05-13T08:21:39.361Z,8753
2023-05-13T08:22:39.374Z,10176
2023-05-13T08:23:45.434Z,12500
2023-05-13T08:24:39.358Z,12224
2023-05-13T08:25:39.379Z,11258
2023-05-13T08:26:39.364Z,10502
2023-05-13T08:27:39.353Z,10364
2023-05-13T08:28:39.395Z,10364
2023-05-13T08:29:39.373Z,10668
2023-05-13T08:30:39.366Z,10893
2023-05-13T08:31:39.439Z,11070
2023-05-13T08:32:39.383Z,12109
2023-05-13T08:33:39.358Z,11744
2023-05-13T08:34:39.366Z,11846
2023-05-13T08:35:39.374Z,12187
2023-05-13T08:36:39.365Z,13715
2023-05-13T08:37:39.359Z,15589
2023-05-13T08:38:39.373Z,14920
2023-05-13T08:39:39.369Z,11564
2023-05-13T08:40:39.354Z,10539
2023-05-13T08:41:39.365Z,10443
2023-05-13T08:42:39.365Z,9851
2023-05-13T08:43:39.368Z,8998
2023-05-13T08:44:39.356Z,9077
2023-05-13T08:45:39.408Z,9035
2023-05-13T08:46:39.482Z,8954
2023-05-13T08:47:39.364Z,9245
2023-05-13T08:48:39.365Z,8213
2023-05-13T08:49:39.368Z,7761
2023-05-13T08:50:39.368Z,7479
2023-05-13T08:51:39.368Z,8628
2023-05-13T08:52:39.398Z,15584
2023-05-13T08:53:39.380Z,7922
2023-05-13T08:54:39.363Z,7055
2023-05-13T08:55:39.380Z,6963
2023-05-13T08:56:39.367Z,7540
2023-05-13T08:57:39.368Z,8126
2023-05-13T08:58:39.365Z,8611
2023-05-13T08:59:39.363Z,9359
2023-05-13T09:00:39.377Z,8650
2023-05-13T09:01:39.446Z,8598
2023-05-13T09:02:39.440Z,8471
2023-05-13T09:03:39.364Z,7546
2023-05-13T09:04:39.381Z,7077
2023-05-13T09:05:39.376Z,6419
2023-05-13T09:06:39.391Z,6451
2023-05-13T09:07:39.384Z,6908
2023-05-13T09:08:39.367Z,8229
2023-05-13T09:09:39.367Z,8355
2023-05-13T09:10:39.366Z,8193
2023-05-13T09:11:39.374Z,8263
2023-05-13T09:12:39.365Z,9208
2023-05-13T09:13:39.372Z,16568
2023-05-13T09:14:39.367Z,16504
2023-05-13T09:15:39.394Z,11894
2023-05-13T09:16:39.379Z,18008
2023-05-13T09:17:39.460Z,10434
2023-05-13T09:18:39.574Z,9219
2023-05-13T09:19:39.553Z,7914
2023-05-13T09:20:39.382Z,7625
2023-05-13T09:21:39.379Z,7372
2023-05-13T09:22:39.347Z,7405
2023-05-13T09:23:39.376Z,7770
2023-05-13T09:24:39.364Z,8176
2023-05-13T09:25:39.373Z,8933
2023-05-13T09:26:39.402Z,9538
2023-05-13T09:27:39.364Z,10050
2023-05-13T09:28:39.362Z,10050
2023-05-13T09:29:39.361Z,11790
2023-05-13T09:30:39.380Z,10760
2023-05-13T09:31:39.468Z,11164
2023-05-13T09:32:39.403Z,10806
2023-05-13T09:33:39.352Z,11114
2023-05-13T09:34:39.379Z,11416
2023-05-13T09:35:39.377Z,11877
2023-05-13T09:36:39.372Z,12507
2023-05-13T09:37:39.366Z,13318
2023-05-13T09:38:39.350Z,14410
2023-05-13T09:39:39.353Z,14601
2023-05-13T09:40:39.360Z,17788
2023-05-13T09:41:39.352Z,18723
2023-05-13T09:42:39.359Z,18179
2023-05-13T09:43:39.355Z,17162
2023-05-13T09:44:39.370Z,18245
2023-05-13T09:45:39.379Z,15606
2023-05-13T09:46:39.401Z,16852
2023-05-13T09:47:39.390Z,16061
2023-05-13T09:48:39.360Z,14376
2023-05-13T09:49:39.370Z,11173
2023-05-13T09:50:39.356Z,11934
2023-05-13T09:51:39.354Z,11910
2023-05-13T09:52:39.365Z,11260
2023-05-13T09:53:39.413Z,10793
2023-05-13T09:54:39.363Z,10233
2023-05-13T09:55:39.364Z,10638
2023-05-13T09:56:39.366Z,10891
2023-05-13T09:57:39.360Z,10325
2023-05-13T09:58:39.373Z,10764
2023-05-13T09:59:39.360Z,10310
2023-05-13T10:00:39.580Z,9691
2023-05-13T10:01:39.454Z,9444
2023-05-13T10:02:39.423Z,9164
2023-05-13T10:03:39.420Z,9020
2023-05-13T10:04:39.360Z,8871
2023-05-13T10:05:39.371Z,8723
2023-05-13T10:06:39.372Z,8602
2023-05-13T10:07:39.374Z,8412
2023-05-13T10:08:39.368Z,8264
2023-05-13T10:09:39.366Z,8207
2023-05-13T10:10:39.361Z,8156
2023-05-13T10:11:39.388Z,8117
2023-05-13T10:12:39.373Z,8032
2023-05-13T10:13:39.368Z,7988
2023-05-13T10:14:39.368Z,7971
2023-05-13T10:15:39.362Z,7966
2023-05-13T10:16:39.441Z,7962
2023-05-13T10:17:39.419Z,7881
2023-05-13T10:18:39.458Z,7811
2023-05-13T10:19:39.353Z,7770
2023-05-13T10:20:39.359Z,7719
2023-05-13T10:21:44.652Z,7710
2023-05-13T10:22:43.649Z,7662
2023-05-13T10:23:43.597Z,7697
2023-05-13T10:24:43.594Z,7769
2023-05-13T10:25:43.605Z,7960
2023-05-13T10:26:43.614Z,8148
2023-05-13T10:27:43.589Z,8327
2023-05-13T10:28:43.595Z,8327
2023-05-13T10:29:43.590Z,8550
2023-05-13T10:30:43.598Z,8543
2023-05-13T10:31:43.661Z,8513
2023-05-13T10:32:43.594Z,8556
2023-05-13T10:33:43.589Z,8447
2023-05-13T10:34:43.595Z,8333
2023-05-13T10:35:43.591Z,8257
2023-05-13T10:36:43.594Z,8240
2023-05-13T10:37:43.591Z,8347
2023-05-13T10:38:43.589Z,8194
2023-05-13T10:39:43.589Z,8218
2023-05-13T10:40:43.597Z,8239
2023-05-13T10:41:43.584Z,8226
2023-05-13T10:42:43.575Z,8216
2023-05-13T10:43:43.573Z,8141
2023-05-13T10:44:43.594Z,8014
2023-05-13T10:45:43.593Z,7754
2023-05-13T10:46:43.712Z,7446
2023-05-13T10:47:43.671Z,7140
2023-05-13T10:48:43.834Z,7018
2023-05-13T10:49:43.593Z,6950
2023-05-13T10:50:43.583Z,6987
2023-05-13T10:51:43.577Z,7042
2023-05-13T10:52:43.578Z,6985
2023-05-13T10:53:43.596Z,7063
2023-05-13T10:54:43.589Z,7168
2023-05-13T10:55:43.575Z,7284
2023-05-13T10:56:43.577Z,7365
2023-05-13T10:57:43.594Z,7446
2023-05-13T10:58:43.595Z,7459
2023-05-13T10:59:43.583Z,7435
2023-05-13T11:00:43.671Z,7339
2023-05-13T11:01:44.039Z,7166
2023-05-13T11:02:43.659Z,6970
2023-05-13T11:03:43.769Z,6878
2023-05-13T11:04:43.580Z,6760
2023-05-13T11:05:43.591Z,6539
2023-05-13T11:06:43.571Z,6344
2023-05-13T11:07:43.575Z,6388
2023-05-13T11:08:43.581Z,6495
2023-05-13T11:09:43.572Z,6394
2023-05-13T11:10:43.590Z,6178
2023-05-13T11:11:43.581Z,6121
2023-05-13T11:12:43.592Z,6347
2023-05-13T11:13:43.603Z,6517
2023-05-13T11:14:43.572Z,6379
2023-05-13T11:15:43.650Z,6430
2023-05-13T11:16:43.677Z,6421
2023-05-13T11:17:43.645Z,6379
2023-05-13T11:18:43.629Z,6331
2023-05-13T11:19:43.581Z,6375
2023-05-13T11:20:52.328Z,6576
2023-05-13T11:21:43.580Z,6829
2023-05-13T11:22:43.585Z,6747
2023-05-13T11:23:43.587Z,6565
2023-05-13T11:24:43.586Z,6423
2023-05-13T11:25:43.588Z,6379
2023-05-13T11:26:43.593Z,6373
2023-05-13T11:27:43.587Z,6388
2023-05-13T11:28:43.584Z,6388
2023-05-13T11:29:43.589Z,5876
2023-05-13T11:30:43.586Z,6108
2023-05-13T11:31:43.891Z,6534
2023-05-13T11:32:43.598Z,6806
2023-05-13T11:33:43.578Z,6888
2023-05-13T11:34:43.575Z,6814
2023-05-13T11:35:43.581Z,6805
2023-05-13T11:36:43.588Z,6873
2023-05-13T11:37:43.577Z,6980
2023-05-13T11:38:43.580Z,6989
2023-05-13T11:39:43.590Z,6991
2023-05-13T11:40:43.580Z,7048
2023-05-13T11:41:43.593Z,7101
2023-05-13T11:42:43.583Z,7153
2023-05-13T11:43:43.574Z,7155
2023-05-13T11:44:43.575Z,7072
2023-05-13T11:45:43.622Z,6985
2023-05-13T11:46:43.591Z,6886
2023-05-13T11:47:43.669Z,6782
2023-05-13T11:48:43.581Z,6672
2023-05-13T11:49:43.574Z,6583
2023-05-13T11:50:43.578Z,6469
2023-05-13T11:51:43.580Z,6366
2023-05-13T11:52:43.599Z,6235
2023-05-13T11:53:43.585Z,6154
2023-05-13T11:54:43.611Z,6077
2023-05-13T11:55:43.580Z,6018
2023-05-13T11:56:43.574Z,5988
2023-05-13T11:57:43.568Z,6005
2023-05-13T11:58:43.578Z,6019
2023-05-13T11:59:48.152Z,6010
2023-05-13T12:00:46.350Z,6051
2023-05-13T12:01:43.622Z,6054
2023-05-13T12:02:43.726Z,6049
2023-05-13T12:03:43.587Z,6053
2023-05-13T12:04:43.645Z,5960
2023-05-13T12:05:43.616Z,5807
2023-05-13T12:06:43.582Z,5783
2023-05-13T12:07:43.594Z,6038
2023-05-13T12:08:43.579Z,6252
2023-05-13T12:09:43.593Z,6322
2023-05-13T12:10:43.595Z,6416
2023-05-13T12:11:43.574Z,6615
2023-05-13T12:12:43.605Z,6650
2023-05-13T12:13:43.591Z,6703
2023-05-13T12:14:43.582Z,6779
2023-05-13T12:15:43.622Z,6782
2023-05-13T12:16:43.589Z,6718
2023-05-13T12:17:43.631Z,6720
2023-05-13T12:18:43.607Z,6676
2023-05-13T12:19:43.577Z,6624
2023-05-13T12:20:43.586Z,6602
2023-05-13T12:21:43.583Z,6611
2023-05-13T12:22:43.638Z,6620
2023-05-13T12:23:43.587Z,6624
2023-05-13T12:24:43.577Z,6670
2023-05-13T12:25:43.588Z,6777
2023-05-13T12:26:43.602Z,6963
2023-05-13T12:27:43.594Z,7017
2023-05-13T12:28:43.595Z,7017
2023-05-13T12:29:43.643Z,7523
2023-05-13T12:30:43.587Z,7750
2023-05-13T12:31:43.654Z,7964
2023-05-13T12:32:45.689Z,8261
2023-05-13T12:33:43.572Z,8454
2023-05-13T12:34:43.577Z,8528
2023-05-13T12:35:43.573Z,8605
2023-05-13T12:36:43.597Z,8709
2023-05-13T12:37:43.584Z,8834
2023-05-13T12:38:43.578Z,8974
2023-05-13T12:39:43.580Z,9129
2023-05-13T12:40:43.569Z,9372
2023-05-13T12:41:43.576Z,9706
2023-05-13T12:42:43.572Z,10179
2023-05-13T12:43:43.573Z,10157
2023-05-13T12:44:43.574Z,10144
2023-05-13T12:45:45.041Z,10036
2023-05-13T12:46:43.808Z,10248
2023-05-13T12:47:43.608Z,10283
2023-05-13T12:48:43.583Z,10345
2023-05-13T12:49:43.593Z,10102
2023-05-13T12:50:43.573Z,10102
2023-05-13T12:51:43.597Z,10401
2023-05-13T12:52:43.586Z,9752
2023-05-13T12:53:43.569Z,9597
2023-05-13T12:54:43.572Z,8781
2023-05-13T12:55:43.586Z,8045
2023-05-13T12:56:43.588Z,7175
2023-05-13T12:57:43.578Z,6276
2023-05-13T12:58:43.577Z,5994
2023-05-13T12:59:43.577Z,5938
2023-05-13T13:00:43.631Z,5747
2023-05-13T13:01:43.696Z,5096
2023-05-13T13:02:43.716Z,3992
2023-05-13T13:03:43.676Z,3238
2023-05-13T13:04:43.592Z,2739
2023-05-13T13:05:43.584Z,2412
2023-05-13T13:06:43.582Z,2222
2023-05-13T13:07:43.584Z,2062
2023-05-13T13:08:43.583Z,1926
2023-05-13T13:09:43.585Z,1795
2023-05-13T13:10:43.578Z,1682
2023-05-13T13:11:43.577Z,1599
2023-05-13T13:12:43.580Z,1540
2023-05-13T13:13:43.573Z,1469
2023-05-13T13:14:43.584Z,1408
2023-05-13T13:15:43.588Z,1349
2023-05-13T13:16:43.675Z,1303
2023-05-13T13:17:43.660Z,1266
2023-05-13T13:18:43.687Z,1244
2023-05-13T13:19:43.597Z,1223
2023-05-13T13:20:43.584Z,1212
2023-05-13T13:21:43.581Z,1185
2023-05-13T13:22:43.584Z,1159
2023-05-13T13:23:43.591Z,1107
2023-05-13T13:24:43.589Z,1069
2023-05-13T13:25:43.585Z,1054
2023-05-13T13:26:43.607Z,1048
2023-05-13T13:27:43.575Z,1074
2023-05-13T13:28:43.592Z,1074
2023-05-13T13:29:43.582Z,1028
2023-05-13T13:30:43.587Z,986
2023-05-13T13:31:43.644Z,943
2023-05-13T13:32:43.609Z,919
2023-05-13T13:33:43.604Z,930
2023-05-13T13:34:43.574Z,973